Alexandria, SD

6:18 AM CDT on September 01, 2014 (GMT -0500)
Hai Bar Ranch | Change Station
CLOSE
Current Station
Personal Weather Station
Location: Mitchell, SD
Elevation: 1296 ft
Nearby Weather Stations

Elev 1296 ft 43.72 °N, 97.96 °W | Updated 12 minutes ago

Partly Cloudy
Partly Cloudy
59.7 °F
Feels Like 59.7 °F
N
2.2
Wind Variable Wind from WNW

Today
High -- | Low -- °F
--% Chance of Precip.
Yesterday
High -- | Low -- °F
Precip. -- in
6:54 AM 8:06 PM
Waxing Crescent, 40% visible
Pressure 29.75 in
Visibility 10.0 miles
Clouds Clear
Dew Point 59 °F
Humidity 99%
Rainfall 0.18 in
Snow Depth Not available.
UV 0 out of 12
Pollen 7.80 out of 12
Air Quality Not available.
Flu Activity Not available.
METAR KMHE 011053Z AUTO 27006KT 10SM CLR 16/15 A2976 RMK AO2 SLP075 T01560150 PNO $

More Conditions Fewer Conditions

Pressure 29.75 in
Visibility 10.0 miles
Clouds Clear
Dew Point 59 °F
Humidity 99%
Rainfall 0.18 in
Snow Depth Not available.
UV 0 out of 12
Pollen 7.80 out of 12
Air Quality Not available.
Flu Activity Not available.
METAR KMHE 011053Z AUTO 27006KT 10SM CLR 16/15 A2976 RMK AO2 SLP075 T01560150 PNO $

More Conditions Fewer Conditions

10-Day Weather Forecast

Almanac

Astronomy

Sep. 01, 2014 Rise Set
Actual Time 6:54 AM CDT 8:06 PM CDT
Civil Twilight 6:25 AM CDT 8:35 PM CDT
Nautical Twilight 5:49 AM CDT 9:11 PM CDT
Astronomical Twilight 5:12 AM CDT 9:48 PM CDT
Moon 1:54 PM CDT 11:55 PM CDT
Length of Visible Light 14h 10m
Length of Day
13h 11m
Tomorrow will be 2m 52s shorter.
Waxing Crescent, 40% of the Moon is Illuminated
Today
Waxing Crescent
Sep 2
First Quarter
Sep 8
Full
Sep 15
Last Quarter
Sep 24
New

Today's Extremes

State Highs State Lows

Community

WunderPhotos

Upload Photos

1,749,188 photos uploaded!

Nearby

Snow Depth

Station Depth Elevation
North Rapid Creek 0 in 6130 ft
Blind Park 0 in 6890 ft

Earthquake Activity

City Distance Mag. Time & Date
No recent earthquake activity has been reported nearby.
Minimum magnitude displayed is 2.5.

Coastal Water Temperatures

Place Temperature
No Stations Reporting

Nearby Weather Stations